Time;durP1;ratioP1;P1;durP2;ratioP2;P2;SDS_P1;SDS_P2;PMS_P1;PMS_P2;Temp;Humidity;BMP_temperature;BMP_pressure;BME280_temperature;BME280_humidity;BME280_pressure;Samples;Min_cycle;Max_cycle;Signal;HPM_P1;HPM_P2
2022/01/28 00:01:05;;;;;;;23.08;4.07;;;5.60;84.70;;;;;;5098124;28;20040;-79
2022/01/28 00:03:37;;;;;;;24.38;4.25;;;5.60;84.40;;;;;;5080286;28;20126;-79
2022/01/28 00:06:05;;;;;;;17.27;3.75;;;5.60;84.80;;;;;;5113176;28;20044;-79
2022/01/28 00:08:31;;;;;;;15.30;3.35;;;5.60;84.80;;;;;;5079373;28;20113;-80
2022/01/28 00:10:57;;;;;;;18.02;4.40;;;5.60;84.80;;;;;;5096016;28;20043;-79
2022/01/28 00:40:26;;;;;;;15.23;2.90;;;5.80;81.30;;;;;;5097498;28;20048;-79
2022/01/28 00:42:51;;;;;;;15.38;3.28;;;5.90;81.10;;;;;;5095271;28;20478;-79
2022/01/28 00:45:18;;;;;;;10.98;4.18;;;5.80;81.50;;;;;;5112589;28;20109;-79
2022/01/28 00:47:46;;;;;;;8.10;2.10;;;5.90;79.20;;;;;;5095452;28;20071;-79
2022/01/28 00:50:13;;;;;;;12.38;2.55;;;5.90;78.60;;;;;;5095651;28;20036;-79
2022/01/28 00:52:39;;;;;;;12.38;2.58;;;5.90;78.70;;;;;;5095395;28;20036;-79
2022/01/28 00:55:05;;;;;;;13.50;2.38;;;5.80;79.00;;;;;;5095599;28;20039;-79
2022/01/28 00:57:30;;;;;;;10.15;2.08;;;5.80;79.00;;;;;;5095510;28;20434;-79
2022/01/28 00:59:56;;;;;;;13.68;3.20;;;5.70;79.40;;;;;;5112469;28;20099;-79
2022/01/28 01:02:22;;;;;;;11.13;2.42;;;5.70;79.40;;;;;;5112271;28;20088;-79
2022/01/28 01:04:48;;;;;;;15.27;2.85;;;5.70;79.50;;;;;;5095568;28;20123;-79
2022/01/28 01:07:13;;;;;;;12.38;2.70;;;5.60;79.90;;;;;;5095216;28;20047;-79
2022/01/28 01:09:39;;;;;;;26.00;3.70;;;5.60;80.10;;;;;;5094805;28;20052;-79
2022/01/28 01:12:05;;;;;;;19.38;3.22;;;5.60;80.40;;;;;;5111993;28;20075;-79
2022/01/28 01:14:31;;;;;;;15.20;3.30;;;5.70;80.80;;;;;;5095137;28;20036;-79
2022/01/28 01:19:25;;;;;;;15.20;3.38;;;5.60;81.60;;;;;;5095141;28;20050;-79
2022/01/28 01:21:56;;;;;;;19.25;3.28;;;5.60;82.10;;;;;;5111999;28;20054;-79
2022/01/28 01:24:24;;;;;;;19.27;3.00;;;5.60;82.20;;;;;;5095780;28;20054;-80
2022/01/28 01:26:50;;;;;;;8.63;2.03;;;5.60;82.30;;;;;;5111926;28;20043;-79
2022/01/28 01:29:19;;;;;;;16.02;4.07;;;5.60;81.80;;;;;;5111986;28;20038;-79
2022/01/28 01:31:45;;;;;;;12.30;2.58;;;5.60;81.40;;;;;;5111952;28;20044;-79
2022/01/28 01:34:15;;;;;;;10.50;1.95;;;5.60;81.20;;;;;;5094945;28;20065;-79
2022/01/28 01:36:42;;;;;;;13.38;2.50;;;5.60;80.70;;;;;;5078944;28;20055;-79
2022/01/28 01:39:08;;;;;;;15.85;3.35;;;5.60;80.30;;;;;;5112163;28;20094;-79
2022/01/28 01:41:41;;;;;;;14.57;2.05;;;5.60;80.50;;;;;;5111846;28;20050;-79
2022/01/28 01:44:28;;;;;;;17.20;3.60;;;5.60;80.50;;;;;;5111689;28;20043;-79
2022/01/28 01:52:43;;;;;;;21.25;3.65;;;5.50;82.40;;;;;;5111952;28;20051;-79
2022/01/28 01:55:09;;;;;;;15.73;3.38;;;5.50;82.70;;;;;;5096954;28;20438;-79
2022/01/28 01:57:35;;;;;;;15.25;3.70;;;5.50;82.60;;;;;;5098471;28;20036;-80
2022/01/28 02:00:01;;;;;;;19.17;4.32;;;5.50;82.70;;;;;;5115567;28;20044;-79
2022/01/28 02:02:27;;;;;;;17.67;3.58;;;5.50;82.60;;;;;;5098616;28;20036;-79
2022/01/28 02:04:53;;;;;;;23.42;4.88;;;5.50;82.60;;;;;;5098469;28;20097;-79
2022/01/28 02:07:19;;;;;;;21.08;4.47;;;5.50;82.20;;;;;;5115404;28;20391;-79
2022/01/28 02:09:44;;;;;;;17.02;5.57;;;5.60;82.00;;;;;;5081324;28;20056;-79
2022/01/28 02:12:10;;;;;;;18.88;3.53;;;5.50;82.00;;;;;;5098365;28;20035;-79
2022/01/28 02:14:36;;;;;;;24.13;5.13;;;5.50;82.10;;;;;;5098555;28;20080;-79
2022/01/28 02:17:03;;;;;;;19.40;5.03;;;5.60;81.70;;;;;;5115495;28;20479;-79
2022/01/28 02:19:29;;;;;;;22.65;4.13;;;5.60;81.50;;;;;;5098354;28;20047;-79
2022/01/28 02:21:55;;;;;;;25.98;5.43;;;5.70;81.80;;;;;;5115049;28;20068;-79
2022/01/28 02:24:43;;;;;;;21.23;5.32;;;5.70;81.90;;;;;;5115069;28;20052;-79
2022/01/28 02:27:11;;;;;;;27.42;4.63;;;5.60;82.30;;;;;;5101178;28;20044;-79
2022/01/28 02:29:37;;;;;;;25.35;5.07;;;5.70;82.40;;;;;;5098375;28;20044;-79
2022/01/28 02:32:07;;;;;;;26.98;5.40;;;5.60;82.70;;;;;;5097873;28;20039;-79
2022/01/28 02:34:37;;;;;;;20.70;4.63;;;5.60;83.00;;;;;;5115086;28;20043;-79
2022/01/28 02:37:04;;;;;;;28.17;4.20;;;5.60;83.40;;;;;;5098052;28;20475;-79
2022/01/28 02:39:29;;;;;;;19.92;4.55;;;5.60;84.20;;;;;;5097669;28;20576;-78
2022/01/28 02:42:04;;;;;;;30.42;6.28;;;5.70;84.80;;;;;;5097712;28;20052;-79
2022/01/28 02:44:47;;;;;;;28.60;5.40;;;5.70;85.20;;;;;;5099153;28;20407;-79
2022/01/28 02:47:17;;;;;;;20.58;5.22;;;5.70;85.60;;;;;;5114626;28;20483;-79
2022/01/28 02:49:44;;;;;;;19.73;3.55;;;5.60;86.00;;;;;;5114540;28;20047;-79
2022/01/28 02:52:18;;;;;;;17.92;4.38;;;5.70;86.30;;;;;;5097545;28;20155;-79
2022/01/28 02:54:47;;;;;;;17.40;4.05;;;5.70;86.50;;;;;;5097508;28;20095;-78
2022/01/28 02:57:16;;;;;;;21.33;4.18;;;5.70;86.40;;;;;;5114773;28;20039;-79
2022/01/28 02:59:42;;;;;;;19.05;4.35;;;5.70;86.60;;;;;;5114433;28;20086;-79
2022/01/28 03:02:07;;;;;;;24.60;4.97;;;5.70;86.60;;;;;;5097403;28;20431;-79
2022/01/28 03:06:59;;;;;;;19.88;4.53;;;5.60;86.30;;;;;;5113831;28;20047;-79
2022/01/28 03:09:24;;;;;;;20.40;4.97;;;5.60;85.50;;;;;;5080194;28;20051;-79
2022/01/28 03:12:12;;;;;;;21.05;4.40;;;5.60;84.80;;;;;;5114115;28;20047;-79
2022/01/28 03:14:58;;;;;;;16.40;3.88;;;5.60;84.20;;;;;;5100132;28;20043;-79
2022/01/28 03:20:16;;;;;;;20.52;4.15;;;5.60;83.10;;;;;;5114383;28;20422;-79
2022/01/28 03:22:41;;;;;;;16.48;3.83;;;5.60;82.30;;;;;;5113943;28;20039;-79
2022/01/28 03:25:08;;;;;;;27.20;4.35;;;5.60;82.20;;;;;;5096817;28;20040;-79
2022/01/28 03:30:05;;;;;;;21.13;4.88;;;5.60;82.90;;;;;;5114077;28;20391;-79
2022/01/28 03:32:31;;;;;;;21.67;4.10;;;5.50;82.90;;;;;;5096807;28;20049;-79
2022/01/28 03:34:57;;;;;;;24.98;4.65;;;5.40;83.10;;;;;;5113746;28;20055;-79
2022/01/28 03:37:23;;;;;;;18.75;5.45;;;5.40;83.30;;;;;;5113600;28;20089;-79
2022/01/28 03:39:49;;;;;;;24.70;5.68;;;5.50;82.70;;;;;;5096939;28;20443;-79
2022/01/28 03:42:14;;;;;;;22.38;4.82;;;5.40;82.80;;;;;;5079836;28;20483;-79
2022/01/28 03:44:40;;;;;;;20.75;4.57;;;5.40;82.00;;;;;;5096440;28;20040;-79
2022/01/28 03:47:06;;;;;;;15.73;4.28;;;5.40;81.80;;;;;;5079528;28;20173;-79
2022/01/28 03:49:31;;;;;;;22.23;4.20;;;5.40;81.90;;;;;;5113773;28;20036;-79
2022/01/28 03:51:57;;;;;;;26.83;5.22;;;5.50;81.50;;;;;;5079579;28;20123;-79
2022/01/28 03:54:23;;;;;;;17.58;4.25;;;5.50;81.30;;;;;;5079609;28;20046;-79
2022/01/28 03:56:49;;;;;;;20.85;3.63;;;5.50;81.30;;;;;;5096389;28;20491;-79
2022/01/28 03:59:14;;;;;;;15.82;3.97;;;5.40;81.40;;;;;;5096515;28;20043;-79
2022/01/28 04:01:43;;;;;;;20.65;4.03;;;5.40;81.00;;;;;;5113260;28;20050;-79
2022/01/28 04:12:20;;;;;;;22.60;4.10;;;5.30;81.30;;;;;;5113293;28;20129;-79
2022/01/28 04:17:26;;;;;;;19.92;4.07;;;5.30;81.60;;;;;;5112511;28;20101;-79
2022/01/28 04:19:52;;;;;;;22.13;5.13;;;5.30;81.60;;;;;;5095948;28;20399;-79
2022/01/28 04:22:21;;;;;;;18.92;4.45;;;5.30;81.00;;;;;;5095805;28;20042;-79
2022/01/28 04:24:48;;;;;;;16.23;4.07;;;5.40;80.70;;;;;;5096090;28;20040;-79
2022/01/28 04:27:14;;;;;;;15.63;3.50;;;5.30;80.80;;;;;;5112663;28;20040;-79
2022/01/28 04:29:40;;;;;;;23.73;4.30;;;5.40;80.20;;;;;;5112690;28;20509;-79
2022/01/28 04:32:06;;;;;;;20.80;4.80;;;5.30;80.20;;;;;;5112579;28;20040;-79
2022/01/28 04:34:32;;;;;;;21.90;3.95;;;5.40;80.20;;;;;;5095555;28;20035;-79
2022/01/28 04:42:25;;;;;;;20.88;4.13;;;5.40;80.40;;;;;;5098322;28;20066;-79
2022/01/28 04:45:12;;;;;;;15.73;3.83;;;5.40;80.60;;;;;;5081104;28;20055;-79
2022/01/28 04:47:47;;;;;;;26.67;6.93;;;5.50;80.70;;;;;;5098434;28;20039;-79
2022/01/28 04:50:31;;;;;;;31.75;7.55;;;5.50;80.60;;;;;;5095444;28;20039;-79
2022/01/28 04:53:46;;;;;;;23.00;5.68;;;5.50;81.00;;;;;;5112562;28;20087;-79
2022/01/28 05:23:07;;;;;;;26.50;6.57;;;5.40;82.60;;;;;;5113013;28;20429;-79
2022/01/28 05:27:51;;;;;;;20.92;5.88;;;5.30;81.80;;;;;;5096455;28;20127;-79
2022/01/28 05:30:17;;;;;;;17.92;4.25;;;5.20;81.80;;;;;;5100604;28;20051;-79
2022/01/28 05:32:43;;;;;;;15.23;3.90;;;5.20;81.10;;;;;;5099797;28;20031;-79
2022/01/28 05:35:08;;;;;;;21.13;4.70;;;5.20;80.10;;;;;;5099946;28;20479;-79
2022/01/28 05:37:34;;;;;;;18.02;3.58;;;5.10;79.90;;;;;;5116447;28;20069;-79
2022/01/28 05:40:00;;;;;;;20.77;4.13;;;5.10;80.20;;;;;;5099779;28;20039;-79
2022/01/28 05:42:26;;;;;;;18.35;4.40;;;5.10;80.00;;;;;;5099411;28;20036;-78
2022/01/28 05:44:52;;;;;;;14.82;3.65;;;5.00;79.80;;;;;;5116389;28;20036;-79
2022/01/28 05:47:18;;;;;;;27.75;4.30;;;5.00;79.40;;;;;;5116604;28;20376;-79
2022/01/28 05:49:44;;;;;;;19.15;3.92;;;5.00;79.50;;;;;;5116316;28;20042;-79
2022/01/28 05:52:10;;;;;;;25.38;4.60;;;4.90;79.50;;;;;;5116414;28;20079;-79
2022/01/28 05:54:36;;;;;;;29.60;6.38;;;4.90;79.50;;;;;;5099207;28;20078;-79
2022/01/28 05:57:02;;;;;;;22.23;4.30;;;4.80;79.50;;;;;;5099440;28;20131;-79
2022/01/28 05:59:27;;;;;;;16.65;3.60;;;4.90;79.80;;;;;;5099060;28;20388;-79
2022/01/28 06:01:53;;;;;;;20.95;3.72;;;4.90;79.40;;;;;;5099425;28;20039;-79
2022/01/28 06:04:21;;;;;;;18.02;4.75;;;4.90;79.30;;;;;;5099350;28;20500;-79
2022/01/28 06:06:47;;;;;;;19.52;3.67;;;4.90;79.20;;;;;;5098933;28;20043;-79
2022/01/28 06:09:13;;;;;;;19.08;5.03;;;4.80;79.40;;;;;;5115708;28;20054;-79
2022/01/28 06:11:39;;;;;;;15.77;3.70;;;4.80;79.70;;;;;;5115891;28;20044;-79
2022/01/28 06:14:06;;;;;;;20.58;4.05;;;4.80;79.80;;;;;;5115774;28;20039;-79
2022/01/28 06:16:32;;;;;;;16.63;4.10;;;4.80;80.00;;;;;;5114959;28;20044;-79
2022/01/28 06:18:58;;;;;;;18.60;4.97;;;4.70;80.30;;;;;;5114431;28;20042;-80
2022/01/28 06:21:24;;;;;;;24.10;4.50;;;4.70;80.50;;;;;;5096801;28;20126;-81
2022/01/28 06:23:52;;;;;;;23.70;4.18;;;4.60;80.70;;;;;;5098162;28;20185;-81
2022/01/28 06:26:18;;;;;;;16.20;5.07;;;4.60;81.00;;;;;;5115036;28;20051;-80
2022/01/28 06:28:44;;;;;;;19.98;4.28;;;4.60;81.30;;;;;;5114834;28;20498;-80
2022/01/28 06:31:10;;;;;;;24.63;4.63;;;4.60;81.50;;;;;;5097959;28;20040;-80
2022/01/28 06:33:36;;;;;;;20.45;3.85;;;4.50;81.70;;;;;;5115181;28;20104;-80
2022/01/28 06:36:03;;;;;;;19.33;4.30;;;4.50;81.90;;;;;;5097967;28;20043;-80
2022/01/28 06:38:30;;;;;;;20.80;4.47;;;4.50;82.10;;;;;;5115080;28;20044;-80
2022/01/28 06:40:55;;;;;;;17.17;6.10;;;4.40;82.20;;;;;;5097122;28;20040;-83
2022/01/28 06:43:21;;;;;;;22.05;4.72;;;4.40;82.30;;;;;;5097684;28;20126;-80
2022/01/28 06:45:47;;;;;;;16.13;4.18;;;4.40;82.40;;;;;;5114622;28;20039;-79
2022/01/28 06:48:16;;;;;;;18.70;4.18;;;4.40;82.60;;;;;;5114508;28;20039;-79
2022/01/28 06:50:42;;;;;;;21.85;4.60;;;4.30;82.80;;;;;;5114624;28;20036;-80
2022/01/28 06:53:11;;;;;;;21.08;4.15;;;4.40;82.40;;;;;;5097842;28;20630;-79
2022/01/28 06:55:37;;;;;;;20.65;4.88;;;4.30;82.60;;;;;;5097433;28;20616;-79
2022/01/28 06:58:04;;;;;;;23.40;4.22;;;4.30;82.70;;;;;;5097451;28;20047;-78
2022/01/28 07:00:37;;;;;;;22.63;5.18;;;4.30;82.70;;;;;;5097679;28;20039;-78
2022/01/28 07:03:04;;;;;;;21.50;4.22;;;4.30;82.60;;;;;;5098695;28;20043;-79
2022/01/28 07:05:30;;;;;;;15.20;3.90;;;4.30;82.80;;;;;;5080536;28;20043;-78
2022/01/28 07:07:55;;;;;;;29.42;5.25;;;4.30;82.90;;;;;;5080917;28;20036;-78
2022/01/28 07:10:21;;;;;;;21.98;3.92;;;4.20;82.90;;;;;;5097112;28;20506;-78
2022/01/28 07:12:47;;;;;;;21.88;4.03;;;4.20;83.00;;;;;;5114078;28;20061;-79
2022/01/28 07:15:13;;;;;;;18.25;4.13;;;4.30;83.10;;;;;;5097130;28;20046;-78
2022/01/28 07:17:38;;;;;;;23.20;4.55;;;4.30;83.10;;;;;;5113658;28;20035;-79
2022/01/28 07:20:05;;;;;;;30.33;6.95;;;4.30;83.10;;;;;;5096622;28;20122;-78
2022/01/28 07:22:31;;;;;;;21.45;4.63;;;4.20;83.40;;;;;;5113741;28;20040;-78
2022/01/28 07:24:57;;;;;;;20.27;5.60;;;4.20;83.50;;;;;;5113627;28;20043;-78
2022/01/28 07:27:23;;;;;;;27.30;7.00;;;4.10;83.70;;;;;;5113712;28;20130;-78
2022/01/28 07:29:50;;;;;;;26.90;5.20;;;4.10;84.10;;;;;;5113860;28;20369;-78
2022/01/28 07:32:16;;;;;;;20.73;4.70;;;4.10;84.30;;;;;;5080199;28;20036;-79
2022/01/28 07:34:43;;;;;;;19.73;4.65;;;4.00;84.20;;;;;;5113725;28;20038;-78
2022/01/28 07:37:09;;;;;;;21.08;4.22;;;3.90;84.40;;;;;;5113696;28;20387;-78
2022/01/28 07:39:35;;;;;;;20.90;5.32;;;3.90;84.50;;;;;;5112321;28;20122;-78
2022/01/28 07:42:00;;;;;;;19.90;4.28;;;3.80;84.60;;;;;;5096847;28;20138;-78
2022/01/28 07:44:26;;;;;;;16.73;4.35;;;3.80;84.80;;;;;;5096599;28;20036;-78
2022/01/28 07:46:52;;;;;;;23.58;4.43;;;3.80;84.80;;;;;;5113531;28;20511;-78
2022/01/28 07:49:17;;;;;;;18.60;4.32;;;3.70;84.80;;;;;;5079626;28;20035;-78
2022/01/28 07:51:43;;;;;;;22.23;4.47;;;3.70;84.90;;;;;;5078332;28;20130;-78
2022/01/28 07:54:09;;;;;;;27.63;4.50;;;3.60;85.00;;;;;;5112958;28;20031;-78
2022/01/28 07:56:35;;;;;;;19.83;4.90;;;3.50;85.20;;;;;;5096033;28;20039;-77
2022/01/28 07:59:02;;;;;;;30.65;5.85;;;3.50;85.30;;;;;;5113138;28;20062;-78
2022/01/28 08:01:28;;;;;;;25.05;7.45;;;3.60;85.50;;;;;;5079819;28;20039;-78
2022/01/28 08:03:53;;;;;;;23.73;6.90;;;3.60;85.70;;;;;;5113005;28;20479;-78
2022/01/28 08:06:19;;;;;;;30.05;7.35;;;3.50;85.80;;;;;;5095914;28;20042;-78
2022/01/28 08:08:45;;;;;;;21.92;7.68;;;3.50;86.00;;;;;;5096179;28;20048;-78
2022/01/28 08:11:11;;;;;;;27.55;7.60;;;3.50;86.00;;;;;;5096164;28;20506;-78
2022/01/28 08:13:53;;;;;;;33.53;8.00;;;3.50;86.20;;;;;;5112035;28;20039;-78
2022/01/28 08:16:20;;;;;;;20.98;5.47;;;3.50;86.20;;;;;;5081288;28;20047;-78
2022/01/28 08:18:46;;;;;;;26.60;5.35;;;3.50;86.30;;;;;;5095974;28;20036;-78
2022/01/28 08:21:11;;;;;;;30.08;6.93;;;3.50;86.50;;;;;;5095833;28;20101;-78
2022/01/28 08:23:37;;;;;;;24.05;4.43;;;3.50;86.50;;;;;;5095918;28;20046;-78
2022/01/28 08:26:04;;;;;;;23.67;5.22;;;3.50;86.80;;;;;;5112425;28;20081;-78
2022/01/28 08:28:29;;;;;;;22.23;4.88;;;3.50;86.80;;;;;;5095793;28;20043;-78
2022/01/28 08:30:55;;;;;;;22.90;6.40;;;3.50;86.80;;;;;;5095787;28;20433;-78
2022/01/28 08:33:21;;;;;;;25.60;5.30;;;3.50;86.80;;;;;;5095557;28;20069;-78
2022/01/28 08:35:52;;;;;;;26.13;6.03;;;3.50;86.80;;;;;;5112530;28;20096;-78
2022/01/28 08:38:29;;;;;;;24.50;7.20;;;3.60;87.10;;;;;;5112178;28;20051;-78
2022/01/28 08:40:57;;;;;;;27.60;5.70;;;3.60;87.00;;;;;;5096329;28;20044;-78
2022/01/28 08:43:22;;;;;;;21.75;5.82;;;3.60;87.10;;;;;;5095606;28;20514;-78
2022/01/28 08:45:48;;;;;;;22.75;5.38;;;3.70;87.10;;;;;;5095643;28;20079;-78
2022/01/28 08:48:14;;;;;;;21.13;5.57;;;3.70;87.10;;;;;;5095676;28;20446;-78
2022/01/28 08:50:40;;;;;;;25.13;4.93;;;3.80;87.10;;;;;;5112271;28;20460;-78
2022/01/28 08:53:06;;;;;;;22.92;6.00;;;3.80;87.20;;;;;;5095375;28;20039;-78
2022/01/28 08:55:31;;;;;;;30.30;6.05;;;3.80;87.20;;;;;;5095145;28;20088;-78
2022/01/28 08:57:57;;;;;;;33.42;5.95;;;3.80;87.20;;;;;;5112323;28;20039;-77
2022/01/28 09:00:23;;;;;;;21.88;5.70;;;3.80;87.30;;;;;;5095704;28;20039;-78
2022/01/28 09:02:50;;;;;;;29.58;8.55;;;3.90;87.30;;;;;;5094868;28;20035;-78
2022/01/28 09:05:17;;;;;;;30.52;6.10;;;4.00;87.40;;;;;;5112136;28;20085;-78
2022/01/28 09:07:42;;;;;;;27.90;5.43;;;4.00;87.50;;;;;;5094439;28;20035;-78
2022/01/28 09:10:18;;;;;;;21.60;4.80;;;4.10;87.50;;;;;;5108526;28;20059;-78
2022/01/28 09:13:10;;;;;;;23.33;6.10;;;4.10;87.60;;;;;;5075931;28;20500;-78
2022/01/28 09:15:33;;;;;;;25.10;6.95;;;4.20;87.50;;;;;;5091303;28;20050;-78
2022/01/28 09:17:59;;;;;;;28.33;6.75;;;4.20;87.50;;;;;;5091843;28;20139;-78
2022/01/28 09:20:25;;;;;;;26.05;7.32;;;4.30;87.60;;;;;;5074731;28;20483;-78
2022/01/28 09:22:51;;;;;;;22.67;6.75;;;4.40;87.70;;;;;;5091971;28;20036;-78
2022/01/28 09:25:17;;;;;;;26.25;6.80;;;4.50;87.70;;;;;;5074449;28;20523;-78
2022/01/28 09:27:43;;;;;;;30.52;8.48;;;4.50;87.70;;;;;;5074833;28;20058;-78
2022/01/28 09:30:09;;;;;;;21.35;6.40;;;4.60;87.70;;;;;;5075023;28;20100;-78
2022/01/28 09:32:35;;;;;;;25.23;7.95;;;4.60;87.70;;;;;;5074664;28;20040;-78
2022/01/28 09:35:02;;;;;;;35.65;6.82;;;4.60;87.70;;;;;;5074489;28;20063;-78
2022/01/28 09:37:28;;;;;;;22.10;7.50;;;4.70;87.70;;;;;;5057795;28;20452;-78
2022/01/28 09:39:54;;;;;;;23.05;6.32;;;4.60;87.70;;;;;;5091788;28;20373;-78
2022/01/28 09:42:24;;;;;;;20.77;5.57;;;4.60;87.70;;;;;;5074511;28;20073;-78
2022/01/28 09:44:49;;;;;;;25.20;5.90;;;4.60;87.80;;;;;;5108317;28;20044;-78
2022/01/28 09:47:16;;;;;;;24.90;6.15;;;4.60;87.80;;;;;;5074522;28;20051;-78
2022/01/28 09:49:43;;;;;;;23.92;5.18;;;4.70;87.80;;;;;;5091340;28;20076;-79
2022/01/28 09:52:11;;;;;;;26.60;5.88;;;4.80;87.70;;;;;;5074691;28;20062;-78
2022/01/28 09:54:38;;;;;;;32.75;6.60;;;5.00;87.50;;;;;;5091282;28;20040;-79
2022/01/28 09:57:06;;;;;;;19.50;4.10;;;5.10;87.30;;;;;;5074472;28;20078;-79
2022/01/28 09:59:33;;;;;;;23.33;3.88;;;5.30;87.00;;;;;;5074901;28;20387;-79
2022/01/28 10:01:58;;;;;;;21.05;5.13;;;5.50;86.60;;;;;;5074788;28;20044;-79
2022/01/28 10:04:24;;;;;;;20.25;4.25;;;5.60;85.80;;;;;;5057618;28;20472;-79
2022/01/28 10:06:50;;;;;;;24.48;4.47;;;5.80;85.10;;;;;;5074400;28;20078;-79
2022/01/28 10:09:19;;;;;;;11.98;3.13;;;5.90;84.40;;;;;;5099087;28;20052;-78
2022/01/28 10:11:51;;;;;;;17.65;3.83;;;6.10;84.10;;;;;;5094624;28;20039;-81
2022/01/28 10:14:20;;;;;;;21.10;4.68;;;6.10;83.80;;;;;;5077949;28;20040;-79
2022/01/28 10:16:58;;;;;;;26.10;4.75;;;6.20;83.30;;;;;;5097347;28;20042;-79
2022/01/28 10:19:37;;;;;;;15.75;4.55;;;6.30;82.90;;;;;;5115025;28;20039;-79
2022/01/28 10:22:15;;;;;;;17.27;4.05;;;6.30;82.60;;;;;;5115038;28;20043;-78
2022/01/28 10:24:41;;;;;;;16.58;3.58;;;6.40;82.20;;;;;;5114933;28;20051;-79
2022/01/28 10:27:07;;;;;;;16.98;3.95;;;6.40;81.90;;;;;;5081051;28;20122;-79
2022/01/28 10:29:38;;;;;;;14.95;3.30;;;6.50;81.40;;;;;;5115154;28;20086;-79
2022/01/28 10:32:06;;;;;;;20.02;4.28;;;6.60;81.00;;;;;;5098134;28;20049;-79
2022/01/28 10:34:53;;;;;;;15.43;4.13;;;6.60;80.70;;;;;;5114742;28;20031;-78
2022/01/28 10:37:23;;;;;;;20.58;5.40;;;6.70;81.00;;;;;;5114169;28;20051;-79
2022/01/28 10:39:50;;;;;;;23.98;3.90;;;6.80;81.00;;;;;;5097952;28;20126;-79
2022/01/28 10:42:32;;;;;;;19.92;5.15;;;6.80;80.60;;;;;;5097768;28;20069;-79
2022/01/28 10:45:02;;;;;;;19.52;3.70;;;6.80;80.40;;;;;;5114620;28;20040;-79
2022/01/28 10:47:29;;;;;;;20.02;4.28;;;6.80;80.40;;;;;;5114399;28;20047;-79
2022/01/28 10:49:55;;;;;;;21.25;4.22;;;6.80;80.60;;;;;;5097684;28;20383;-79
2022/01/28 10:52:33;;;;;;;13.10;3.38;;;6.90;80.40;;;;;;5097857;28;20046;-79
2022/01/28 10:55:00;;;;;;;21.83;4.70;;;6.90;80.50;;;;;;5114666;28;20042;-80
2022/01/28 10:57:29;;;;;;;18.50;3.50;;;7.00;80.30;;;;;;5080840;28;20043;-79
2022/01/28 10:59:55;;;;;;;16.52;3.05;;;7.00;78.80;;;;;;5097572;28;20043;-80
2022/01/28 11:02:25;;;;;;;18.85;3.47;;;7.00;78.20;;;;;;5097367;28;20069;-79
2022/01/28 11:04:54;;;;;;;19.75;3.63;;;7.00;78.30;;;;;;5114495;28;20043;-80
2022/01/28 11:07:20;;;;;;;19.58;4.55;;;7.10;78.20;;;;;;5113791;28;20044;-80
2022/01/28 11:09:47;;;;;;;13.20;3.67;;;7.10;78.20;;;;;;5096943;28;20047;-80
2022/01/28 11:12:14;;;;;;;18.27;4.00;;;7.10;78.10;;;;;;5114249;28;20044;-80
2022/01/28 11:14:40;;;;;;;15.35;3.85;;;7.10;78.40;;;;;;5097448;28;20387;-80
2022/01/28 11:17:08;;;;;;;16.10;3.70;;;7.10;78.70;;;;;;5113903;28;20043;-80
2022/01/28 11:19:38;;;;;;;17.85;3.90;;;7.10;78.90;;;;;;5097511;28;20058;-80
2022/01/28 11:22:29;;;;;;;24.75;3.92;;;7.10;78.50;;;;;;5114070;28;20051;-80
2022/01/28 11:25:26;;;;;;;14.00;3.40;;;7.20;78.90;;;;;;5056362;28;20466;-78
2022/01/28 11:28:05;;;;;;;21.58;4.13;;;7.20;78.80;;;;;;5112471;28;20135;-78
2022/01/28 11:30:31;;;;;;;18.25;3.42;;;7.20;79.20;;;;;;5113832;28;20036;-78
2022/01/28 11:33:02;;;;;;;18.73;4.45;;;7.20;79.00;;;;;;5097003;28;20039;-77
2022/01/28 11:35:53;;;;;;;16.48;3.75;;;7.40;78.80;;;;;;5096807;28;20040;-78
2022/01/28 11:38:25;;;;;;;19.15;4.40;;;7.50;78.60;;;;;;5112757;28;20039;-78
2022/01/28 11:41:06;;;;;;;18.70;4.25;;;7.60;77.60;;;;;;5113715;28;20083;-78
2022/01/28 11:43:33;;;;;;;16.83;3.90;;;7.70;77.70;;;;;;5113636;28;20527;-78
2022/01/28 11:46:09;;;;;;;21.30;3.97;;;7.80;76.90;;;;;;5096541;28;20391;-78
2022/01/28 11:48:56;;;;;;;13.48;3.95;;;8.00;77.10;;;;;;5113426;28;20134;-78
2022/01/28 11:51:24;;;;;;;27.52;4.72;;;8.10;76.50;;;;;;5113434;28;20032;-78
2022/01/28 11:54:02;;;;;;;19.80;4.05;;;8.20;76.10;;;;;;5096426;28;20040;-77
2022/01/28 11:56:29;;;;;;;22.98;9.25;;;8.40;76.20;;;;;;5113609;28;20036;-78
2022/01/28 11:59:02;;;;;;;16.50;4.63;;;8.40;74.50;;;;;;5113562;28;20047;-78
2022/01/28 12:01:39;;;;;;;19.45;4.95;;;8.50;73.10;;;;;;5112940;28;20046;-78
2022/01/28 12:04:24;;;;;;;14.00;3.05;;;8.60;73.40;;;;;;5113164;28;20082;-78
2022/01/28 12:07:21;;;;;;;21.80;5.88;;;8.70;73.80;;;;;;5096081;28;20126;-79
2022/01/28 12:09:53;;;;;;;19.85;6.60;;;8.80;73.30;;;;;;5094813;28;20105;-78
2022/01/28 12:12:39;;;;;;;21.38;4.57;;;8.80;73.20;;;;;;5095794;28;20035;-77
2022/01/28 12:15:11;;;;;;;24.10;5.47;;;8.90;72.50;;;;;;5095666;28;20039;-77
2022/01/28 12:17:40;;;;;;;19.52;3.45;;;9.00;73.40;;;;;;5112964;28;20407;-77
2022/01/28 12:20:15;;;;;;;18.15;3.63;;;9.10;72.70;;;;;;5113033;28;20392;-77
2022/01/28 12:22:59;;;;;;;20.15;3.83;;;9.00;72.20;;;;;;5095701;28;20446;-78
2022/01/28 12:25:43;;;;;;;16.83;3.30;;;9.10;72.20;;;;;;5095573;28;20039;-77
2022/01/28 12:28:23;;;;;;;18.00;3.67;;;9.20;72.60;;;;;;5112771;28;20040;-76
2022/01/28 12:30:50;;;;;;;16.25;4.07;;;9.40;73.50;;;;;;5112153;28;20476;-77
2022/01/28 12:33:22;;;;;;;16.10;4.97;;;9.50;72.40;;;;;;5095592;28;20032;-77
2022/01/28 12:35:51;;;;;;;14.63;3.83;;;9.50;71.40;;;;;;5112267;28;20070;-78
2022/01/28 12:38:21;;;;;;;11.50;3.13;;;9.40;71.70;;;;;;5094928;28;20337;-77
2022/01/28 12:40:51;;;;;;;12.02;4.35;;;9.30;72.30;;;;;;5112769;28;20469;-78
2022/01/28 12:43:22;;;;;;;9.82;2.83;;;9.10;71.70;;;;;;5112243;28;20043;-78
2022/01/28 12:46:02;;;;;;;17.13;3.35;;;9.00;71.60;;;;;;5096159;28;20375;-77
2022/01/28 12:48:28;;;;;;;17.08;4.32;;;9.00;72.30;;;;;;5095885;28;20035;-79
2022/01/28 12:50:55;;;;;;;13.80;3.30;;;9.10;72.20;;;;;;5113125;28;20046;-78
2022/01/28 12:53:47;;;;;;;19.00;3.53;;;9.10;72.70;;;;;;5095347;28;20043;-78
2022/01/28 12:56:17;;;;;;;17.33;3.78;;;9.10;72.60;;;;;;5112516;28;20112;-77
2022/01/28 12:58:51;;;;;;;17.33;3.58;;;9.20;72.70;;;;;;5095487;28;20035;-77
2022/01/28 13:01:20;;;;;;;20.05;4.53;;;9.30;73.20;;;;;;5112528;28;20038;-78
2022/01/28 13:04:01;;;;;;;13.70;3.22;;;9.30;71.80;;;;;;5112241;28;20048;-77
2022/01/28 13:08:58;;;;;;;11.00;2.60;;;9.40;72.00;;;;;;5115518;27;20380;-77
2022/01/28 13:11:25;;;;;;;13.23;2.10;;;9.50;71.90;;;;;;5115371;28;20108;-77
2022/01/28 13:13:54;;;;;;;9.50;2.67;;;9.60;69.50;;;;;;5098576;28;20495;-77
2022/01/28 13:16:31;;;;;;;11.30;2.42;;;9.60;68.50;;;;;;5115210;28;20078;-77
2022/01/28 13:18:58;;;;;;;12.02;2.55;;;9.60;69.40;;;;;;5115233;28;20408;-77
2022/01/28 13:21:24;;;;;;;12.90;2.53;;;9.60;68.50;;;;;;5115348;28;20049;-77
2022/01/28 13:24:23;;;;;;;10.52;3.42;;;9.70;69.60;;;;;;5081627;28;20043;-77
2022/01/28 13:26:57;;;;;;;12.85;2.97;;;9.70;69.80;;;;;;5098024;28;20058;-77
2022/01/28 13:29:35;;;;;;;12.23;2.17;;;9.60;70.00;;;;;;5115217;28;20043;-77
2022/01/28 13:32:09;;;;;;;13.65;2.45;;;9.60;70.50;;;;;;5098193;28;20100;-77
2022/01/28 13:34:52;;;;;;;15.40;3.47;;;9.50;70.70;;;;;;5115216;28;20074;-77
2022/01/28 13:37:39;;;;;;;13.93;2.85;;;9.40;71.90;;;;;;5114807;28;20039;-76
2022/01/28 13:40:26;;;;;;;13.02;4.03;;;9.20;72.10;;;;;;5115298;28;20395;-78
2022/01/28 13:43:09;;;;;;;11.35;3.60;;;9.00;72.70;;;;;;5115048;28;20470;-77
2022/01/28 13:45:41;;;;;;;16.95;4.13;;;9.00;73.70;;;;;;5114906;28;20051;-77
2022/01/28 13:48:40;;;;;;;14.55;3.08;;;9.10;73.70;;;;;;5097962;28;20035;-77
2022/01/28 13:51:16;;;;;;;18.15;3.28;;;9.10;73.60;;;;;;5117597;27;20406;-77
2022/01/28 13:56:34;;;;;;;10.75;2.38;;;9.00;74.40;;;;;;5119190;27;20410;-77
2022/01/28 13:59:00;;;;;;;14.18;4.00;;;8.90;74.70;;;;;;5118922;27;20042;-77
2022/01/28 14:01:28;;;;;;;12.55;2.70;;;8.90;75.50;;;;;;5118673;27;20039;-77
2022/01/28 14:03:59;;;;;;;15.23;2.92;;;8.90;74.90;;;;;;5118833;27;20116;-77
2022/01/28 14:06:26;;;;;;;12.73;2.72;;;8.90;75.80;;;;;;5118782;27;20043;-76
2022/01/28 14:09:02;;;;;;;10.05;3.00;;;8.90;75.60;;;;;;5118655;27;20132;-77
2022/01/28 14:11:35;;;;;;;10.93;2.40;;;8.80;75.90;;;;;;5118609;27;20054;-77
2022/01/28 14:14:23;;;;;;;14.55;3.70;;;8.80;76.30;;;;;;5118887;27;20035;-76
2022/01/28 14:16:56;;;;;;;9.65;2.65;;;8.70;76.70;;;;;;5118667;27;20066;-77
2022/01/28 14:19:23;;;;;;;9.77;2.00;;;8.70;76.00;;;;;;5118826;27;20058;-77
2022/01/28 14:21:50;;;;;;;11.98;2.45;;;8.70;75.90;;;;;;5118430;27;20386;-77
2022/01/28 14:24:19;;;;;;;17.73;3.70;;;8.50;76.40;;;;;;5118302;27;20480;-77
2022/01/28 14:26:55;;;;;;;9.45;2.72;;;8.40;77.00;;;;;;5118414;27;20035;-76
2022/01/28 14:29:35;;;;;;;14.95;2.92;;;8.30;77.30;;;;;;5118638;27;20078;-76
2022/01/28 14:32:01;;;;;;;15.95;2.60;;;8.20;77.60;;;;;;5118507;27;20089;-77
2022/01/28 14:34:27;;;;;;;14.40;3.00;;;8.00;78.60;;;;;;5084575;27;20038;-77